Racecast

India Isaac

M.P. Striders Youth Track (CA) · 2 · STS · Compare head to head

Athlete rating 126.0 2014 TF season
Best race 127.7 TF
Races 24
Seasons 1 2014
Rating scale ?
Speed rating — all races

Track & Field

TF speed rating

2014 TF 123.5

M.P. Striders Youth Track (CA) · Grade 2

Date Meet Event Result Place Rating Difficulty PR/SR Flags
2014-06-20 USATF Pacific Assoc. Junior Olympics (Top 8) 1500m 6:16.83 3rd · 1st on team 121.9 -0.031
2014-06-20 USATF Pacific Assoc. Junior Olympics (Top 8) 800m 3:03.51 2nd · 1st on team 122.5 -0.031
2014-06-20 USATF Pacific Assoc. Junior Olympics (Top 8) 400m 1:16.2 3rd · 1st on team -0.031 ★PR SR
2014-06-20 USATF Pacific Assoc. Junior Olympics (Top 8) 400m 1:21.59 9th · 2nd on team -0.031
2014-05-31 Pacific Association Championships (PAC) 400m 1:22.14 6th · 1st on team -0.024
2014-05-31 Pacific Association Championships (PAC) 1500m 6:14.92 2nd · 1st on team 123.6 -0.024
2014-05-24 Central Valley Roadrunners 400m 1:23 2nd · 1st on team -0.026
2014-05-24 Central Valley Roadrunners 1500m 6:06.8 1st · 1st on team 126.1 -0.026 ★PR R SR RSR
2014-05-24 Central Valley Roadrunners 800m 2:57.16 1st · 1st on team 127.7 -0.026 ★PR ★R SR RSR
2014-05-18 3M Invitational 1500m 6:13.71 1st · 1st on team 123.5 -0.028 PR R SR RSR
2014-05-18 3M Invitational 400m 1:16.73 1st · 1st on team -0.028 PR SR
2014-05-18 3M Invitational 800m 2:59.66 1st · 1st on team 125.8 -0.028 PR R SR RSR
2014-04-26 Revolution Express TC 100m 17.46 6th · 1st on team -0.024
2014-04-26 Revolution Express TC 200m 36.96 7th · 1st on team -0.024
2014-04-26 Revolution Express TC 400m 1:33.18 17th · 1st on team -0.024
2014-04-19 3rd Annual Shor/Sheppard Classic Meet lj 2.14m -0.023
2014-04-19 3rd Annual Shor/Sheppard Classic Meet 800m 3:14.49 2nd · 1st on team 116.6 -0.023 PR R SR RSR
2014-04-19 3rd Annual Shor/Sheppard Classic Meet 100m 17.2 4th · 1st on team -0.023
2014-04-05 Sacramento Speed Showcase 100m 16.73 2nd · 1st on team -0.033 ★PR SR
2014-04-05 Sacramento Speed Showcase 400m 1:23.97 5th · 1st on team -0.033 PR SR
2014-04-05 Sacramento Speed Showcase 200m 36.25 2nd · 1st on team -0.033 ★PR SR
2014-03-22 RPM lj 6-05.00 -0.012
2014-03-22 RPM 400m 1:28.84 7th · 1st on team -0.012 PR SR
2014-03-22 RPM 100m 17.84 10th · 1st on team -0.012 PR SR